Time;durP1;ratioP1;P1;durP2;ratioP2;P2;SDS_P1;SDS_P2;PMS_P1;PMS_P2;Temp;Humidity;BMP_temperature;BMP_pressure;BME280_temperature;BME280_humidity;BME280_pressure;Samples;Min_cycle;Max_cycle;Signal;HPM_P1;HPM_P2
2022/04/06 00:00:13;;;;;;;7.27;6.53;;;12.10;99.90;;;;;;5034000;28;20477;-70
2022/04/06 00:02:39;;;;;;;6.90;6.20;;;12.20;99.90;;;;;;5034030;28;20466;-70
2022/04/06 00:05:09;;;;;;;7.00;6.40;;;12.10;99.90;;;;;;5033843;28;20468;-70
2022/04/06 00:07:37;;;;;;;6.13;5.53;;;12.00;99.90;;;;;;5033992;28;20406;-69
2022/04/06 00:10:04;;;;;;;7.00;6.40;;;11.90;99.90;;;;;;5034184;28;20405;-69
2022/04/06 00:12:30;;;;;;;5.80;5.30;;;12.00;99.90;;;;;;5033829;28;20407;-70
2022/04/06 00:14:55;;;;;;;6.67;6.10;;;12.10;99.90;;;;;;5033577;28;20957;-70
2022/04/06 00:17:21;;;;;;;6.13;5.67;;;12.10;99.90;;;;;;5034251;28;20165;-70
2022/04/06 00:19:46;;;;;;;6.13;5.63;;;12.10;99.90;;;;;;5034180;28;20635;-70
2022/04/06 00:22:12;;;;;;;7.67;6.30;;;11.90;99.90;;;;;;5034067;28;20204;-69
2022/04/06 00:24:38;;;;;;;6.00;5.60;;;11.90;99.90;;;;;;5032440;28;20202;-70
2022/04/06 00:27:04;;;;;;;6.00;5.50;;;12.00;99.90;;;;;;5032986;28;20659;-69
2022/04/06 00:29:30;;;;;;;6.13;5.57;;;12.20;99.90;;;;;;5033344;28;20178;-69
2022/04/06 00:31:55;;;;;;;5.77;5.27;;;12.20;99.90;;;;;;5033710;28;20493;-69
2022/04/06 00:35:28;;;;;;;5.90;5.40;;;12.00;99.90;;;;;;5033677;28;20619;-69
2022/04/06 00:37:07;;;;;;;6.67;6.00;;;12.10;99.90;;;;;;5033275;28;20639;-69
2022/04/06 00:39:32;;;;;;;7.30;5.93;;;12.00;99.90;;;;;;5034398;28;20414;-69
2022/04/06 00:41:58;;;;;;;7.50;6.37;;;11.80;99.90;;;;;;5033401;28;20226;-69
2022/04/06 00:44:23;;;;;;;6.50;6.00;;;11.90;99.90;;;;;;5033341;28;20200;-69
2022/04/06 00:46:49;;;;;;;6.80;6.20;;;12.00;99.90;;;;;;5033467;28;20284;-69
2022/04/06 00:49:15;;;;;;;6.20;5.70;;;11.90;99.90;;;;;;5033771;28;20179;-69
2022/04/06 00:51:47;;;;;;;6.33;5.73;;;11.90;99.90;;;;;;5033044;28;20168;-70
2022/04/06 00:54:14;;;;;;;6.77;6.17;;;11.90;99.90;;;;;;5033042;28;20395;-69
2022/04/06 00:56:42;;;;;;;6.33;5.83;;;11.80;99.90;;;;;;5033562;28;20897;-69
2022/04/06 00:59:09;;;;;;;6.20;5.67;;;11.70;99.90;;;;;;5032780;28;20406;-69
2022/04/06 01:01:35;;;;;;;5.80;5.40;;;11.80;99.90;;;;;;5033263;28;20402;-69
2022/04/06 01:04:01;;;;;;;6.90;6.30;;;11.70;99.90;;;;;;5033131;28;20867;-69
2022/04/06 01:06:27;;;;;;;6.63;6.03;;;11.80;99.90;;;;;;5032678;28;20413;-70
2022/04/06 01:08:53;;;;;;;9.47;6.47;;;11.90;99.90;;;;;;5032953;28;20172;-70
2022/04/06 01:11:20;;;;;;;5.87;5.27;;;11.90;99.90;;;;;;5033133;28;20874;-70
2022/04/06 01:13:46;;;;;;;6.30;5.53;;;12.00;99.90;;;;;;5032702;28;20410;-70
2022/04/06 01:16:12;;;;;;;6.10;5.57;;;12.10;99.90;;;;;;5032661;28;20450;-69
2022/04/06 01:18:39;;;;;;;6.33;5.83;;;12.10;99.90;;;;;;5032705;28;20851;-70
2022/04/06 01:21:05;;;;;;;6.97;5.87;;;12.00;99.90;;;;;;5031280;28;20942;-68
2022/04/06 01:23:31;;;;;;;6.27;5.67;;;11.90;99.90;;;;;;5032700;28;20402;-70
2022/04/06 01:25:57;;;;;;;5.57;5.17;;;11.70;99.90;;;;;;5015095;28;20207;-70
2022/04/06 01:28:22;;;;;;;5.40;5.00;;;11.80;99.90;;;;;;5031341;28;20174;-70
2022/04/06 01:30:48;;;;;;;6.47;5.93;;;11.90;99.90;;;;;;5032750;28;20899;-70
2022/04/06 01:33:14;;;;;;;6.60;6.00;;;11.80;99.90;;;;;;5032595;28;20244;-70
2022/04/06 01:35:42;;;;;;;6.80;6.20;;;11.60;99.90;;;;;;5032543;28;20217;-70
2022/04/06 01:38:07;;;;;;;6.30;5.70;;;11.70;99.90;;;;;;5035967;28;20660;-69
2022/04/06 01:40:33;;;;;;;5.60;5.10;;;11.80;99.90;;;;;;5035502;28;20434;-69
2022/04/06 01:42:59;;;;;;;6.00;5.50;;;11.90;99.90;;;;;;5036817;28;20177;-69
2022/04/06 01:45:25;;;;;;;5.63;5.23;;;12.00;99.90;;;;;;5036862;28;20240;-69
2022/04/06 01:47:50;;;;;;;5.70;5.03;;;12.10;99.90;;;;;;5036751;28;20414;-70
2022/04/06 01:53:02;;;;;;;5.77;5.27;;;11.90;99.90;;;;;;5039117;28;20669;-70
2022/04/06 01:55:28;;;;;;;6.10;5.60;;;12.00;99.90;;;;;;5036150;28;20438;-71
2022/04/06 01:57:53;;;;;;;6.40;5.30;;;12.00;99.90;;;;;;5036503;28;20465;-70
2022/04/06 02:00:20;;;;;;;6.00;5.50;;;12.10;99.90;;;;;;5036349;28;20675;-70
2022/04/06 02:02:53;;;;;;;6.70;5.60;;;12.00;99.90;;;;;;5036854;28;20582;-70
2022/04/06 02:05:19;;;;;;;5.40;4.90;;;12.10;99.90;;;;;;5036388;28;20865;-70
2022/04/06 02:07:50;;;;;;;8.20;5.97;;;12.10;99.90;;;;;;5036223;28;20428;-70
2022/04/06 02:10:17;;;;;;;6.10;5.60;;;11.90;99.90;;;;;;5035945;28;20771;-69
2022/04/06 02:12:44;;;;;;;5.33;4.93;;;12.00;99.90;;;;;;5036895;28;20758;-69
2022/04/06 02:15:12;;;;;;;6.63;6.03;;;12.10;99.90;;;;;;5035966;28;20461;-69
2022/04/06 02:17:38;;;;;;;6.27;5.77;;;12.00;99.90;;;;;;5036077;28;20406;-69
2022/04/06 02:20:04;;;;;;;6.63;5.97;;;11.80;99.90;;;;;;5036075;28;20768;-69
2022/04/06 02:22:30;;;;;;;6.10;5.60;;;11.80;99.90;;;;;;5035834;28;20497;-70
2022/04/06 02:24:56;;;;;;;7.07;6.47;;;11.70;99.90;;;;;;5035815;28;20548;-70
2022/04/06 02:27:21;;;;;;;6.30;5.80;;;11.80;99.90;;;;;;5035327;28;20663;-70
2022/04/06 02:29:48;;;;;;;5.80;5.30;;;11.90;99.90;;;;;;5034724;28;20229;-70
2022/04/06 02:32:14;;;;;;;6.20;5.70;;;12.00;99.90;;;;;;5035929;28;20175;-69
2022/04/06 02:34:40;;;;;;;6.90;6.30;;;12.00;99.90;;;;;;5035632;28;20798;-70
2022/04/06 02:37:07;;;;;;;6.07;5.40;;;12.10;99.90;;;;;;5035723;28;20174;-70
2022/04/06 02:39:33;;;;;;;5.70;5.20;;;12.10;99.90;;;;;;5036046;28;20503;-68
2022/04/06 02:41:59;;;;;;;6.30;5.10;;;12.10;99.90;;;;;;5035708;28;20420;-69
2022/04/06 02:44:24;;;;;;;6.17;5.57;;;12.20;99.90;;;;;;5035360;28;20208;-70
2022/04/06 02:46:50;;;;;;;5.43;5.03;;;12.20;99.90;;;;;;5035629;28;20185;-69
2022/04/06 02:49:16;;;;;;;5.20;4.80;;;12.30;99.90;;;;;;5035424;28;20633;-69
2022/04/06 02:51:42;;;;;;;6.63;6.03;;;12.40;99.90;;;;;;5035958;28;20182;-69
2022/04/06 02:54:08;;;;;;;5.50;5.00;;;12.30;99.90;;;;;;5035521;28;20406;-70
2022/04/06 02:56:34;;;;;;;6.80;6.30;;;12.00;99.90;;;;;;5035498;28;20215;-69
2022/04/06 02:59:01;;;;;;;7.17;6.57;;;11.90;99.90;;;;;;5034934;28;20184;-69
2022/04/06 03:01:27;;;;;;;5.80;5.30;;;11.90;99.90;;;;;;5035407;28;20413;-70
2022/04/06 03:03:53;;;;;;;5.00;4.57;;;11.90;99.90;;;;;;5035269;28;20844;-68
2022/04/06 03:06:19;;;;;;;6.27;5.77;;;12.10;99.90;;;;;;5035029;28;20491;-69
2022/04/06 03:08:45;;;;;;;6.30;5.17;;;12.10;99.90;;;;;;5017182;28;20503;-69
2022/04/06 03:11:11;;;;;;;6.17;5.70;;;12.00;99.90;;;;;;5035065;28;20951;-70
2022/04/06 03:13:38;;;;;;;6.27;5.60;;;12.00;99.90;;;;;;5034710;28;20406;-70
2022/04/06 03:16:05;;;;;;;6.97;6.30;;;12.10;99.90;;;;;;5033954;28;20493;-70
2022/04/06 03:18:30;;;;;;;6.23;5.67;;;12.00;99.90;;;;;;5034817;28;20512;-70
2022/04/06 03:20:56;;;;;;;6.97;6.23;;;11.90;99.90;;;;;;5035032;28;20559;-69
2022/04/06 03:23:22;;;;;;;7.03;6.33;;;12.00;99.90;;;;;;5017158;28;20252;-70
2022/04/06 03:25:48;;;;;;;6.20;5.60;;;11.60;99.90;;;;;;5034929;28;21036;-68
2022/04/06 03:28:14;;;;;;;6.10;5.60;;;11.80;99.90;;;;;;5033640;28;20223;-68
2022/04/06 03:30:40;;;;;;;7.03;6.40;;;12.00;99.90;;;;;;5034770;28;20551;-69
2022/04/06 03:33:07;;;;;;;6.00;5.50;;;12.00;99.90;;;;;;5035021;28;20647;-70
2022/04/06 03:35:32;;;;;;;6.00;5.50;;;12.00;99.90;;;;;;5035181;28;20957;-70
2022/04/06 03:37:58;;;;;;;5.50;5.00;;;12.00;99.90;;;;;;5035339;28;20402;-70
2022/04/06 03:40:24;;;;;;;8.30;6.10;;;12.00;99.90;;;;;;5034503;28;20492;-71
2022/04/06 03:42:50;;;;;;;5.67;5.20;;;12.00;99.90;;;;;;5034931;28;20194;-69
2022/04/06 03:45:15;;;;;;;6.10;5.60;;;12.00;99.90;;;;;;5033926;28;20205;-70
2022/04/06 03:47:42;;;;;;;7.10;6.40;;;11.90;99.90;;;;;;5034650;28;20624;-70
2022/04/06 03:50:08;;;;;;;7.70;6.90;;;11.90;99.90;;;;;;5034125;28;20167;-69
2022/04/06 03:52:34;;;;;;;6.63;5.63;;;11.90;99.90;;;;;;5034272;28;20473;-69
2022/04/06 03:54:59;;;;;;;5.47;4.97;;;12.00;99.90;;;;;;5034241;28;20194;-69
2022/04/06 03:57:25;;;;;;;6.57;5.97;;;12.00;99.90;;;;;;5034229;28;20194;-70
2022/04/06 03:59:51;;;;;;;6.30;5.80;;;11.90;99.90;;;;;;5035656;28;20590;-69
2022/04/06 04:02:17;;;;;;;6.10;5.60;;;11.90;99.90;;;;;;5034234;28;20192;-69
2022/04/06 04:04:43;;;;;;;7.30;6.10;;;11.90;99.90;;;;;;5030728;28;20835;-69
2022/04/06 04:07:09;;;;;;;7.43;6.73;;;12.00;99.90;;;;;;5033979;28;20202;-70
2022/04/06 04:09:35;;;;;;;5.27;4.83;;;11.90;99.90;;;;;;5034033;28;20160;-70
2022/04/06 04:12:02;;;;;;;8.40;6.87;;;11.90;99.90;;;;;;5034145;28;20628;-70
2022/04/06 04:14:31;;;;;;;7.53;6.73;;;11.80;99.90;;;;;;5035619;28;20912;-69
2022/04/06 04:16:58;;;;;;;6.33;5.77;;;11.80;99.90;;;;;;5034243;28;20416;-70
2022/04/06 04:19:24;;;;;;;5.37;4.87;;;11.80;99.90;;;;;;5033380;28;20780;-70
2022/04/06 04:21:49;;;;;;;5.97;5.47;;;11.90;99.90;;;;;;5033968;28;20406;-70
2022/04/06 04:24:15;;;;;;;6.83;6.23;;;11.90;99.90;;;;;;5033559;28;20255;-70
2022/04/06 04:26:41;;;;;;;6.80;6.10;;;11.90;99.90;;;;;;5028747;28;20410;-70
2022/04/06 04:29:10;;;;;;;6.47;5.80;;;11.90;99.90;;;;;;5032381;28;20273;-70
2022/04/06 04:31:36;;;;;;;6.17;5.50;;;12.10;99.90;;;;;;5028468;28;20187;-70
2022/04/06 04:34:02;;;;;;;7.37;6.67;;;12.00;99.90;;;;;;5033360;28;20403;-70
2022/04/06 04:36:28;;;;;;;8.27;6.63;;;12.10;99.90;;;;;;5033615;28;20200;-70
2022/04/06 04:38:54;;;;;;;6.60;6.00;;;12.10;99.90;;;;;;5033421;28;20410;-70
2022/04/06 04:41:20;;;;;;;7.47;5.70;;;11.80;99.90;;;;;;5033382;28;20174;-70
2022/04/06 04:43:46;;;;;;;6.43;5.83;;;11.90;99.90;;;;;;5033261;28;20832;-69
2022/04/06 04:46:11;;;;;;;5.63;5.23;;;11.60;99.90;;;;;;5033097;28;20195;-69
2022/04/06 04:48:37;;;;;;;8.77;6.43;;;11.70;99.90;;;;;;5033700;28;20179;-69
2022/04/06 04:51:03;;;;;;;6.00;5.40;;;11.80;99.90;;;;;;5015484;28;20256;-68
2022/04/06 04:53:30;;;;;;;5.40;4.90;;;11.70;99.90;;;;;;5033232;28;20438;-70
2022/04/06 04:55:56;;;;;;;6.27;5.67;;;12.00;99.90;;;;;;5033746;28;20792;-70
2022/04/06 04:58:22;;;;;;;6.37;5.83;;;11.90;99.90;;;;;;5032889;28;20507;-70
2022/04/06 05:00:48;;;;;;;6.17;5.57;;;12.00;99.90;;;;;;5033179;28;20859;-69
2022/04/06 05:03:14;;;;;;;7.10;6.13;;;12.10;99.90;;;;;;5033396;28;20557;-70
2022/04/06 05:05:42;;;;;;;6.03;5.53;;;12.20;99.90;;;;;;5034238;28;20255;-70
2022/04/06 05:08:08;;;;;;;5.57;5.07;;;12.10;99.90;;;;;;5033868;28;20250;-70
2022/04/06 05:10:33;;;;;;;6.40;5.50;;;12.20;99.90;;;;;;5033528;28;20470;-69
2022/04/06 05:12:59;;;;;;;6.00;5.50;;;12.20;99.90;;;;;;5032226;28;20410;-70
2022/04/06 05:15:25;;;;;;;7.23;6.10;;;12.20;99.90;;;;;;5032451;28;20607;-69
2022/04/06 05:17:51;;;;;;;7.60;5.97;;;12.10;99.90;;;;;;5032689;28;20525;-69
2022/04/06 05:20:16;;;;;;;6.30;5.80;;;12.10;99.90;;;;;;5032888;28;20464;-70
2022/04/06 05:22:42;;;;;;;8.20;7.03;;;12.20;99.90;;;;;;5032850;28;20175;-71
2022/04/06 05:25:08;;;;;;;6.60;6.00;;;12.30;99.90;;;;;;5032987;28;20333;-70
2022/04/06 05:27:43;;;;;;;6.27;5.67;;;12.40;99.90;;;;;;5032709;28;20588;-69
2022/04/06 05:30:09;;;;;;;6.93;6.23;;;12.30;99.90;;;;;;5030482;28;20678;-70
2022/04/06 05:32:34;;;;;;;7.73;6.67;;;12.40;99.90;;;;;;5032892;28;20409;-69
2022/04/06 05:35:00;;;;;;;7.07;6.37;;;12.50;99.90;;;;;;5014855;28;20442;-70
2022/04/06 05:37:25;;;;;;;6.90;6.20;;;12.30;99.90;;;;;;5032704;28;20366;-69
2022/04/06 05:39:51;;;;;;;6.30;5.70;;;12.30;99.90;;;;;;5032528;28;20203;-69
2022/04/06 05:42:17;;;;;;;7.10;6.50;;;12.40;99.90;;;;;;5032782;28;20637;-69
2022/04/06 05:44:42;;;;;;;6.70;6.10;;;12.40;99.90;;;;;;5031968;28;20206;-71
2022/04/06 05:47:08;;;;;;;7.27;6.67;;;12.40;99.90;;;;;;5032879;28;20168;-69
2022/04/06 05:49:33;;;;;;;8.37;6.80;;;12.30;99.90;;;;;;5032497;28;20163;-70
2022/04/06 05:51:59;;;;;;;7.60;6.90;;;12.50;99.90;;;;;;5032595;28;20178;-70
2022/04/06 05:54:25;;;;;;;7.40;6.43;;;12.40;99.90;;;;;;5015305;28;20286;-70
2022/04/06 05:56:50;;;;;;;6.23;5.63;;;12.60;99.90;;;;;;5032255;28;20178;-70
2022/04/06 05:59:16;;;;;;;6.77;6.17;;;12.60;99.90;;;;;;5034343;28;20183;-70
2022/04/06 06:01:41;;;;;;;27.10;24.20;;;12.60;99.90;;;;;;5031848;28;20185;-69
2022/04/06 06:04:07;;;;;;;9.63;8.53;;;12.40;99.90;;;;;;5032888;28;20166;-70
2022/04/06 06:06:33;;;;;;;7.67;7.07;;;12.50;99.90;;;;;;5033547;28;20171;-70
2022/04/06 06:08:58;;;;;;;7.40;6.70;;;12.40;99.90;;;;;;5033020;28;20259;-70
2022/04/06 06:11:24;;;;;;;7.67;6.97;;;12.10;99.90;;;;;;5033282;28;20274;-70
2022/04/06 06:13:49;;;;;;;8.07;7.30;;;12.10;99.90;;;;;;5014063;28;20176;-70
2022/04/06 06:16:15;;;;;;;7.73;6.93;;;12.30;99.90;;;;;;5031394;28;20567;-73
2022/04/06 06:18:41;;;;;;;10.93;6.93;;;12.50;99.90;;;;;;5032299;28;20178;-72
2022/04/06 06:21:06;;;;;;;8.43;7.67;;;12.60;99.90;;;;;;5032133;28;20169;-73
2022/04/06 06:23:32;;;;;;;7.63;7.03;;;12.70;99.90;;;;;;5034628;28;20414;-72
2022/04/06 06:25:58;;;;;;;7.30;6.53;;;12.60;99.90;;;;;;5035486;28;20284;-72
2022/04/06 06:28:24;;;;;;;7.90;6.70;;;12.80;99.90;;;;;;5034820;28;20184;-72
2022/04/06 06:30:49;;;;;;;7.50;6.83;;;12.80;99.90;;;;;;5035721;28;20262;-70
2022/04/06 06:33:16;;;;;;;7.83;7.23;;;12.90;99.90;;;;;;5036143;28;20769;-70
2022/04/06 06:35:42;;;;;;;7.20;6.50;;;12.90;99.90;;;;;;5035653;28;20282;-71
2022/04/06 06:38:08;;;;;;;10.13;6.70;;;12.70;99.90;;;;;;5035655;28;20452;-70
2022/04/06 06:40:34;;;;;;;7.23;6.63;;;12.70;99.90;;;;;;5035797;28;20209;-71
2022/04/06 06:42:59;;;;;;;6.57;5.13;;;12.70;99.90;;;;;;5036309;28;20635;-71
2022/04/06 06:45:25;;;;;;;6.43;5.93;;;12.70;99.90;;;;;;5035330;28;20210;-72
2022/04/06 06:47:51;;;;;;;10.93;6.87;;;12.60;99.90;;;;;;5036002;28;20171;-72
2022/04/06 06:50:18;;;;;;;6.23;5.73;;;12.70;99.90;;;;;;5035413;28;20206;-71
2022/04/06 06:52:44;;;;;;;7.67;5.53;;;12.80;99.90;;;;;;5035697;28;20409;-72
2022/04/06 06:55:10;;;;;;;6.37;5.80;;;12.90;99.90;;;;;;5034997;28;20453;-72
2022/04/06 06:57:36;;;;;;;7.57;6.43;;;12.90;99.90;;;;;;5034351;28;20430;-74
2022/04/06 07:00:05;;;;;;;5.83;5.33;;;12.70;99.90;;;;;;5034806;28;20187;-71
2022/04/06 07:02:31;;;;;;;6.17;5.57;;;13.00;99.90;;;;;;5035107;28;20177;-71
2022/04/06 07:04:56;;;;;;;6.40;5.13;;;12.80;99.90;;;;;;5035772;28;20454;-71
2022/04/06 07:07:22;;;;;;;5.63;5.10;;;12.80;99.90;;;;;;5035012;28;20173;-70
2022/04/06 07:09:48;;;;;;;5.30;4.90;;;13.00;99.90;;;;;;5034930;28;20171;-70
2022/04/06 07:12:13;;;;;;;5.50;5.00;;;13.10;99.90;;;;;;5034945;28;20179;-72
2022/04/06 07:14:39;;;;;;;4.73;4.33;;;13.20;99.90;;;;;;5034286;28;20211;-70
2022/04/06 07:17:05;;;;;;;5.27;4.77;;;13.30;99.90;;;;;;5034908;28;20158;-69
2022/04/06 07:19:30;;;;;;;5.67;5.27;;;13.10;99.90;;;;;;5034897;28;20415;-69
2022/04/06 07:21:56;;;;;;;4.93;4.33;;;13.20;99.90;;;;;;5034631;28;20226;-69
2022/04/06 07:24:22;;;;;;;4.93;4.43;;;13.40;99.90;;;;;;5035201;28;20194;-70
2022/04/06 07:26:47;;;;;;;6.70;3.77;;;13.40;99.90;;;;;;5034753;28;20171;-71
2022/04/06 07:29:15;;;;;;;3.50;3.20;;;13.30;99.90;;;;;;5033246;28;20209;-71
2022/04/06 07:31:41;;;;;;;5.80;3.83;;;13.30;99.90;;;;;;5034684;28;20282;-69
2022/04/06 07:34:07;;;;;;;3.77;3.47;;;13.40;99.90;;;;;;5034062;28;20496;-70
2022/04/06 07:36:35;;;;;;;3.87;3.57;;;13.30;99.90;;;;;;5034472;28;20431;-69
2022/04/06 07:39:05;;;;;;;6.00;3.30;;;13.40;99.90;;;;;;5034704;28;20181;-69
2022/04/06 07:41:32;;;;;;;4.00;3.70;;;13.40;99.90;;;;;;5033581;28;20946;-70
2022/04/06 07:43:58;;;;;;;3.50;3.03;;;13.50;99.90;;;;;;5034084;28;20842;-71
2022/04/06 07:46:24;;;;;;;3.47;3.17;;;13.50;99.90;;;;;;5016880;28;20455;-70
2022/04/06 07:48:50;;;;;;;4.13;3.47;;;13.60;99.90;;;;;;5034755;28;20406;-70
2022/04/06 07:51:16;;;;;;;3.93;3.30;;;13.60;99.90;;;;;;5016667;28;20586;-71
2022/04/06 07:53:42;;;;;;;3.30;3.00;;;13.70;99.90;;;;;;5034466;28;20398;-69
2022/04/06 07:56:08;;;;;;;3.70;3.40;;;13.60;99.90;;;;;;5033897;28;20917;-70
2022/04/06 07:58:35;;;;;;;3.03;2.80;;;13.80;99.90;;;;;;5034386;28;20409;-70
2022/04/06 08:01:02;;;;;;;2.80;2.43;;;13.90;99.90;;;;;;5034026;28;20167;-70
2022/04/06 08:03:29;;;;;;;2.80;2.60;;;13.70;99.90;;;;;;5036705;28;20493;-70
2022/04/06 08:05:54;;;;;;;3.10;2.80;;;13.60;99.90;;;;;;5033791;28;20490;-70
2022/04/06 08:08:20;;;;;;;2.60;2.40;;;13.90;99.90;;;;;;5034053;28;20415;-71
2022/04/06 08:10:46;;;;;;;3.27;2.50;;;13.90;99.90;;;;;;5033621;28;20215;-70
2022/04/06 08:13:11;;;;;;;3.03;2.50;;;13.70;99.90;;;;;;5034127;28;20170;-71
2022/04/06 08:15:37;;;;;;;2.50;2.30;;;13.90;99.90;;;;;;5033343;28;20222;-70
2022/04/06 08:18:03;;;;;;;3.20;2.20;;;13.70;99.90;;;;;;5033742;28;20176;-70
2022/04/06 08:20:28;;;;;;;3.47;2.40;;;13.80;99.90;;;;;;5033556;28;20239;-71
2022/04/06 08:22:56;;;;;;;2.83;2.10;;;13.90;99.90;;;;;;5033750;28;20413;-70
2022/04/06 08:25:22;;;;;;;3.43;2.53;;;14.10;99.90;;;;;;5033483;28;20295;-70
2022/04/06 08:27:47;;;;;;;1.87;1.77;;;14.20;99.90;;;;;;5033779;28;20456;-71
2022/04/06 08:30:14;;;;;;;1.90;1.77;;;14.40;99.90;;;;;;5032410;28;20622;-71
2022/04/06 08:32:40;;;;;;;4.47;1.60;;;14.40;99.90;;;;;;5033752;28;20167;-68
2022/04/06 08:35:08;;;;;;;10.80;2.13;;;14.30;99.90;;;;;;5033507;28;20439;-68
2022/04/06 08:37:34;;;;;;;4.67;1.90;;;14.60;99.90;;;;;;5032282;28;20174;-71
2022/04/06 08:40:00;;;;;;;2.07;1.87;;;14.50;99.90;;;;;;5033458;28;20435;-71
2022/04/06 08:42:27;;;;;;;1.83;1.30;;;14.20;99.90;;;;;;5033680;28;20193;-71
2022/04/06 08:44:54;;;;;;;3.30;1.20;;;14.10;99.90;;;;;;5033321;28;20664;-71
2022/04/06 08:47:20;;;;;;;2.60;1.30;;;14.30;99.90;;;;;;5033357;28;20442;-72
2022/04/06 08:49:46;;;;;;;2.63;1.70;;;14.60;99.90;;;;;;5033559;28;20414;-71
2022/04/06 08:52:12;;;;;;;1.83;1.50;;;14.90;99.90;;;;;;5033655;28;20832;-69
2022/04/06 08:54:38;;;;;;;1.60;1.37;;;14.80;99.90;;;;;;5032734;28;20792;-69
2022/04/06 08:57:05;;;;;;;5.23;1.20;;;14.60;99.90;;;;;;5033660;28;20188;-70
2022/04/06 08:59:31;;;;;;;1.80;1.27;;;14.60;99.90;;;;;;5033301;28;20807;-70
2022/04/06 09:01:57;;;;;;;1.63;1.33;;;14.50;99.90;;;;;;5033349;28;20400;-71
2022/04/06 09:04:24;;;;;;;1.17;1.00;;;14.60;99.90;;;;;;5032856;28;20433;-69
2022/04/06 09:06:50;;;;;;;2.50;1.10;;;14.70;99.90;;;;;;5032891;28;20182;-69
2022/04/06 09:09:24;;;;;;;1.10;1.00;;;14.90;99.90;;;;;;5032579;28;20438;-68
2022/04/06 09:11:50;;;;;;;1.20;1.00;;;15.10;99.90;;;;;;5033089;28;20419;-69
2022/04/06 09:14:29;;;;;;;4.00;0.80;;;15.30;99.90;;;;;;5032931;28;20414;-68
2022/04/06 09:17:03;;;;;;;1.10;0.90;;;15.40;99.90;;;;;;5032819;28;20430;-69
2022/04/06 09:19:29;;;;;;;1.00;0.70;;;15.20;99.90;;;;;;5033139;28;20412;-71
2022/04/06 09:21:55;;;;;;;1.30;0.97;;;15.20;99.90;;;;;;5031752;28;20764;-71
2022/04/06 09:24:24;;;;;;;1.33;1.00;;;15.10;99.90;;;;;;5032607;28;20185;-70
2022/04/06 09:27:00;;;;;;;0.90;0.80;;;14.90;99.90;;;;;;5032825;28;20755;-71
2022/04/06 09:29:26;;;;;;;3.17;0.80;;;14.90;99.90;;;;;;5031604;28;20512;-72
2022/04/06 09:31:52;;;;;;;0.80;0.70;;;15.00;99.90;;;;;;5033740;28;20486;-72
2022/04/06 09:34:22;;;;;;;1.13;0.60;;;15.10;99.90;;;;;;5033241;28;20411;-70
2022/04/06 09:36:56;;;;;;;1.23;0.90;;;15.10;99.90;;;;;;5033290;28;20408;-71
2022/04/06 09:39:42;;;;;;;1.33;0.97;;;15.30;99.90;;;;;;5033032;28;20487;-74
2022/04/06 09:42:07;;;;;;;2.07;0.80;;;15.30;99.90;;;;;;5031832;28;20424;-71
2022/04/06 09:47:39;;;;;;;2.10;0.97;;;15.40;99.90;;;;;;5032144;28;20194;-71
2022/04/06 09:50:15;;;;;;;1.63;0.70;;;14.90;99.90;;;;;;5032000;28;20429;-73
2022/04/06 09:52:42;;;;;;;1.37;0.70;;;14.80;99.90;;;;;;5032750;28;20441;-69
2022/04/06 09:55:10;;;;;;;1.37;0.93;;;14.90;99.90;;;;;;5032781;28;20456;-70
2022/04/06 09:57:39;;;;;;;1.17;0.80;;;14.70;99.90;;;;;;5033351;28;20413;-69
2022/04/06 10:00:06;;;;;;;2.63;0.60;;;15.00;99.90;;;;;;5037770;28;20425;-69
2022/04/06 10:02:33;;;;;;;1.47;0.60;;;15.20;99.90;;;;;;5036091;28;20471;-70
2022/04/06 10:05:02;;;;;;;0.80;0.60;;;15.40;99.90;;;;;;5036229;28;20465;-69
2022/04/06 10:07:28;;;;;;;2.13;0.73;;;15.50;99.90;;;;;;5036332;28;20922;-68
2022/04/06 10:09:56;;;;;;;7.50;0.90;;;15.50;99.90;;;;;;5036186;28;20400;-72
2022/04/06 10:12:21;;;;;;;0.87;0.60;;;15.80;99.90;;;;;;5036085;28;20202;-71
2022/04/06 10:17:21;;;;;;;0.90;0.80;;;16.00;99.90;;;;;;5033445;23;20255;-69
2022/04/06 10:19:52;;;;;;;1.30;0.60;;;16.00;99.90;;;;;;4996599;28;20919;-68
2022/04/06 10:22:30;;;;;;;1.53;1.00;;;15.90;99.90;;;;;;4996355;28;20164;-69
2022/04/06 10:25:10;;;;;;;1.37;0.77;;;15.60;99.90;;;;;;4996568;28;20437;-69
2022/04/06 10:27:42;;;;;;;1.70;0.90;;;15.60;99.90;;;;;;4977007;28;20457;-69
2022/04/06 10:30:26;;;;;;;0.80;0.70;;;15.60;99.90;;;;;;4999165;28;20442;-70
2022/04/06 10:32:53;;;;;;;1.20;0.60;;;15.40;99.90;;;;;;5016398;28;20455;-69
2022/04/06 10:35:28;;;;;;;1.00;0.80;;;15.50;99.90;;;;;;5016248;28;20453;-70
2022/04/06 10:37:56;;;;;;;1.87;0.63;;;15.90;99.90;;;;;;5016120;28;20424;-69
2022/04/06 10:40:22;;;;;;;1.90;1.03;;;16.20;99.90;;;;;;5015790;28;20406;-69
2022/04/06 10:42:49;;;;;;;1.10;0.80;;;16.50;99.90;;;;;;5015781;28;20443;-69
2022/04/06 10:45:27;;;;;;;1.47;0.70;;;16.90;99.90;;;;;;5015315;28;20448;-69
2022/04/06 10:48:13;;;;;;;0.70;0.60;;;17.40;99.30;;;;;;5016340;28;20476;-68
2022/04/06 10:50:41;;;;;;;0.80;0.50;;;17.80;98.60;;;;;;5016147;28;20391;-68
2022/04/06 10:53:18;;;;;;;1.63;0.93;;;18.20;97.10;;;;;;5015553;28;20411;-68
2022/04/06 10:56:16;;;;;;;0.97;0.77;;;18.90;96.40;;;;;;5015609;28;20433;-69
2022/04/06 10:58:54;;;;;;;1.27;0.63;;;19.00;96.00;;;;;;5015742;28;20402;-69
2022/04/06 11:01:34;;;;;;;0.90;0.70;;;19.10;95.80;;;;;;5015189;28;20410;-68
2022/04/06 11:04:05;;;;;;;1.47;0.60;;;18.70;95.00;;;;;;5015752;28;20436;-70
2022/04/06 11:06:55;;;;;;;1.00;0.70;;;18.40;95.80;;;;;;5015191;28;20460;-68
2022/04/06 11:12:34;;;;;;;1.00;0.50;;;19.70;94.40;;;;;;5002419;28;20407;-69
2022/04/06 11:15:00;;;;;;;1.50;0.80;;;22.10;93.40;;;;;;5014491;28;20934;-70
2022/04/06 11:17:38;;;;;;;1.07;0.70;;;22.60;89.60;;;;;;5015164;28;20423;-70
2022/04/06 11:20:18;;;;;;;0.70;0.40;;;23.10;87.50;;;;;;5015292;28;20163;-68
2022/04/06 11:22:50;;;;;;;1.07;0.80;;;24.80;82.60;;;;;;5015117;28;20902;-67
2022/04/06 11:25:17;;;;;;;2.23;0.87;;;24.00;79.80;;;;;;5015009;28;20430;-68
2022/04/06 11:27:45;;;;;;;1.23;0.60;;;24.20;79.60;;;;;;5015428;28;20538;-68
2022/04/06 11:30:14;;;;;;;3.23;0.80;;;23.20;81.10;;;;;;5013393;28;20849;-71
2022/04/06 11:32:42;;;;;;;1.87;0.70;;;23.40;79.10;;;;;;5015038;28;20411;-69
2022/04/06 11:35:09;;;;;;;0.87;0.63;;;23.00;77.70;;;;;;5014681;28;20411;-70
2022/04/06 11:37:46;;;;;;;0.90;0.50;;;22.70;81.80;;;;;;5014733;28;20407;-69
2022/04/06 11:40:13;;;;;;;1.63;0.73;;;22.80;78.50;;;;;;5014871;28;20428;-69
2022/04/06 11:42:39;;;;;;;1.00;0.73;;;22.10;80.30;;;;;;4997068;28;20896;-69
2022/04/06 11:45:06;;;;;;;1.13;0.80;;;22.50;80.10;;;;;;5014113;28;20496;-69
2022/04/06 11:47:36;;;;;;;0.70;0.50;;;23.10;77.20;;;;;;5015026;28;20407;-69
2022/04/06 11:50:10;;;;;;;0.80;0.60;;;22.40;77.10;;;;;;4997432;28;20498;-71
2022/04/06 11:52:40;;;;;;;1.00;0.73;;;21.50;78.90;;;;;;5013705;28;20387;-71
2022/04/06 11:55:07;;;;;;;1.13;0.70;;;21.30;82.10;;;;;;4993957;28;20780;-70
2022/04/06 11:57:48;;;;;;;0.80;0.50;;;21.50;81.00;;;;;;4995518;28;20408;-69
2022/04/06 12:00:16;;;;;;;0.80;0.50;;;23.40;77.90;;;;;;5005328;28;20415;-71
2022/04/06 12:02:53;;;;;;;0.90;0.70;;;23.50;75.20;;;;;;5014712;28;20403;-71
2022/04/06 12:05:25;;;;;;;1.30;0.90;;;23.50;76.70;;;;;;5014681;28;20531;-70
2022/04/06 12:08:07;;;;;;;1.80;1.00;;;22.80;74.70;;;;;;5014559;28;20395;-70
2022/04/06 12:10:33;;;;;;;1.00;0.70;;;21.80;79.10;;;;;;5014245;28;20406;-75
2022/04/06 12:12:59;;;;;;;1.10;0.70;;;21.90;78.40;;;;;;5014247;28;20411;-75
2022/04/06 12:15:25;;;;;;;0.90;0.70;;;21.50;79.50;;;;;;5013382;28;20207;-74
2022/04/06 12:17:51;;;;;;;1.00;0.60;;;22.20;79.50;;;;;;5014430;28;20462;-70
2022/04/06 12:20:26;;;;;;;2.50;0.60;;;23.10;76.60;;;;;;5014167;28;20268;-69
2022/04/06 12:23:05;;;;;;;0.87;0.60;;;24.50;71.70;;;;;;5014022;28;20438;-70
2022/04/06 12:25:32;;;;;;;1.57;0.53;;;25.00;68.60;;;;;;5013815;28;20975;-73
2022/04/06 12:28:11;;;;;;;0.70;0.60;;;23.70;66.10;;;;;;5013847;28;20442;-74
2022/04/06 12:31:07;;;;;;;0.90;0.70;;;24.00;69.70;;;;;;5012214;28;20438;-75
2022/04/06 12:33:41;;;;;;;0.77;0.57;;;24.80;68.70;;;;;;5013669;28;20387;-74
2022/04/06 12:36:30;;;;;;;1.53;0.67;;;25.50;65.70;;;;;;5013793;28;20482;-75
2022/04/06 12:39:13;;;;;;;0.93;0.60;;;25.30;66.00;;;;;;5014531;28;20931;-71
2022/04/06 12:41:55;;;;;;;1.30;0.70;;;24.80;65.50;;;;;;5013687;28;20859;-71
2022/04/06 12:44:21;;;;;;;1.70;0.70;;;24.10;66.20;;;;;;5013285;28;20414;-70
2022/04/06 12:46:50;;;;;;;0.90;0.60;;;24.70;63.70;;;;;;5013127;28;20431;-69
2022/04/06 12:49:28;;;;;;;1.20;0.70;;;25.00;63.50;;;;;;5013806;28;20180;-70
2022/04/06 12:52:17;;;;;;;1.00;0.50;;;24.60;64.30;;;;;;5013955;28;20747;-66
2022/04/06 12:54:51;;;;;;;1.00;0.60;;;25.80;62.80;;;;;;5013802;28;20433;-67
2022/04/06 12:57:26;;;;;;;1.50;0.67;;;24.30;64.90;;;;;;5013768;28;20838;-68
2022/04/06 12:59:59;;;;;;;2.93;0.60;;;24.80;62.90;;;;;;5013100;28;20422;-71